createdAt,value
2019-01-04T10:14:50.273Z,10.04
2019-01-04T10:17:22.854Z,10.09
2019-01-04T10:19:52.014Z,10.03
2019-01-04T10:22:21.163Z,10.04
2019-01-04T10:24:50.263Z,10.02
2019-01-04T10:27:19.362Z,10.00
2019-01-04T10:29:48.431Z,9.98
2019-01-04T10:32:17.528Z,9.96
2019-01-04T10:34:46.623Z,9.99
2019-01-04T10:37:15.719Z,9.99
2019-01-04T10:39:44.795Z,10.05
2019-01-04T10:42:13.873Z,10.12
2019-01-04T10:44:43.028Z,10.14
2019-01-04T10:47:12.107Z,10.12
2019-01-04T10:49:41.165Z,10.13
2019-01-04T10:52:10.233Z,10.13
2019-01-04T10:54:39.340Z,10.16
2019-01-04T10:57:08.396Z,10.14
2019-01-04T10:59:37.514Z,10.10
2019-01-04T11:02:06.534Z,10.08
2019-01-04T11:04:35.533Z,10.06
2019-01-04T11:07:04.516Z,10.06
2019-01-04T11:09:33.566Z,10.06
2019-01-04T11:12:02.516Z,10.06
2019-01-04T11:14:31.579Z,10.02
2019-01-04T11:17:00.647Z,9.99
2019-01-04T11:19:29.811Z,10.00
2019-01-04T11:22:34.431Z,10.02
2019-01-04T11:25:42.951Z,10.02
2019-01-04T11:28:18.429Z,10.04
2019-01-04T11:31:24.455Z,10.08
2019-01-04T11:34:00.321Z,10.14
2019-01-04T11:37:05.767Z,10.14
2019-01-04T11:40:11.957Z,10.12
2019-01-04T11:43:06.393Z,10.15
2019-01-04T11:46:10.816Z,10.10
2019-01-04T11:48:59.786Z,10.08
2019-01-04T11:51:55.424Z,10.04
2019-01-04T11:54:29.516Z,10.00
2019-01-04T11:56:58.644Z,9.97
2019-01-04T11:59:27.860Z,9.97
2019-01-04T12:01:56.957Z,9.98
2019-01-04T12:04:26.129Z,10.00
2019-01-04T12:06:56.819Z,10.00
2019-01-04T12:09:25.998Z,10.00
2019-01-04T12:11:55.239Z,9.93
2019-01-04T12:14:24.647Z,9.92
2019-01-04T12:16:53.949Z,9.86
2019-01-04T12:19:23.108Z,9.86
2019-01-04T12:21:52.212Z,9.87
2019-01-04T12:24:22.330Z,9.80
2019-01-04T12:26:51.593Z,9.79
2019-01-04T12:29:20.695Z,9.78
2019-01-04T12:31:49.834Z,9.81
2019-01-04T12:34:18.914Z,9.78
2019-01-04T12:36:48.098Z,9.72
2019-01-04T12:39:17.197Z,9.73
2019-01-04T12:41:46.284Z,9.73
2019-01-04T12:44:15.349Z,9.71
2019-01-04T12:46:44.409Z,9.74
2019-01-04T12:49:13.456Z,9.80
2019-01-04T12:51:42.528Z,9.88
2019-01-04T12:54:11.785Z,9.89
2019-01-04T12:56:40.894Z,9.95
2019-01-04T12:59:10.004Z,10.00
2019-01-04T13:01:39.209Z,10.06
2019-01-04T13:04:08.368Z,10.13
2019-01-04T13:06:37.442Z,10.14
2019-01-04T13:09:07.333Z,10.16
2019-01-04T13:11:36.372Z,10.18
2019-01-04T13:14:05.445Z,10.19
2019-01-04T13:16:34.566Z,10.16
2019-01-04T13:19:03.628Z,10.17
2019-01-04T13:21:32.654Z,10.13
2019-01-04T13:24:01.710Z,10.10
2019-01-04T13:26:30.853Z,10.09
2019-01-04T13:28:59.939Z,10.05
2019-01-04T13:31:29.001Z,10.02
2019-01-04T13:33:58.132Z,9.99
2019-01-04T13:36:27.191Z,9.94
2019-01-04T13:38:56.245Z,9.94
2019-01-04T13:41:25.305Z,9.96
2019-01-04T13:43:54.405Z,9.93
2019-01-04T13:46:23.457Z,9.94
2019-01-04T13:48:52.544Z,9.93
2019-01-04T13:51:21.643Z,9.94
2019-01-04T13:53:50.736Z,9.94
2019-01-04T13:56:19.881Z,9.95
2019-01-04T13:58:49.130Z,9.95
2019-01-04T14:01:18.158Z,9.90
2019-01-04T14:03:47.314Z,9.84
2019-01-04T14:06:16.395Z,9.81
2019-01-04T14:08:45.561Z,9.78
2019-01-04T14:11:14.631Z,9.76
2019-01-04T14:13:43.789Z,9.71
2019-01-04T14:16:12.872Z,9.67
2019-01-04T14:18:41.935Z,9.63
2019-01-04T14:21:11.087Z,9.64
2019-01-04T14:23:40.272Z,9.66
2019-01-04T14:26:09.395Z,9.63
2019-01-04T14:28:38.520Z,9.61
2019-01-04T14:31:07.776Z,9.58
2019-01-04T14:33:36.782Z,9.55
2019-01-04T14:36:06.981Z,9.57
2019-01-04T14:38:36.107Z,9.58
2019-01-04T14:41:05.203Z,9.62
2019-01-04T14:43:34.332Z,9.64
2019-01-04T14:46:03.466Z,9.65
2019-01-04T14:48:32.382Z,9.64
2019-01-04T14:51:01.478Z,9.62
2019-01-04T14:53:30.718Z,9.62
2019-01-04T14:55:59.855Z,9.59
2019-01-04T14:58:29.036Z,9.53
2019-01-04T15:00:58.183Z,9.51
2019-01-04T15:03:27.192Z,9.49
2019-01-04T15:05:56.248Z,9.45
2019-01-04T15:08:25.406Z,9.44
2019-01-04T15:10:54.509Z,9.44
2019-01-04T15:13:23.588Z,9.44
2019-01-04T15:15:52.705Z,9.42
2019-01-04T15:18:21.723Z,9.43
2019-01-04T15:20:50.971Z,9.43
2019-01-04T15:23:20.039Z,9.44
2019-01-04T15:25:49.407Z,9.45
2019-01-04T15:28:18.539Z,9.43
2019-01-04T15:30:47.583Z,9.44
2019-01-04T15:33:16.701Z,9.45
2019-01-04T15:35:46.663Z,9.48
2019-01-04T15:38:16.567Z,9.49
2019-01-04T15:40:45.702Z,9.49
2019-01-04T15:43:14.835Z,9.49
2019-01-04T15:45:43.919Z,9.47
2019-01-04T15:48:12.957Z,9.48
2019-01-04T15:50:42.016Z,9.48
2019-01-04T15:53:11.076Z,9.45
2019-01-04T15:55:40.160Z,9.42
2019-01-04T15:58:09.194Z,9.41
2019-01-04T16:00:38.289Z,9.40
2019-01-04T16:03:07.303Z,9.37
2019-01-04T16:05:36.628Z,9.33
2019-01-04T16:08:05.810Z,9.31
2019-01-04T16:10:34.832Z,9.32
2019-01-04T16:13:04.051Z,9.35
2019-01-04T16:15:33.109Z,9.31
2019-01-04T16:18:02.280Z,9.30
2019-01-04T16:20:31.347Z,9.33
